createdAt,value
2023-05-23T00:01:46.780Z,62.82
2023-05-23T00:04:17.339Z,62.62
2023-05-23T00:06:50.452Z,63.02
2023-05-23T00:09:17.414Z,63.11
2023-05-23T00:11:45.461Z,62.98
2023-05-23T00:14:14.239Z,63.02
2023-05-23T00:16:45.403Z,62.90
2023-05-23T00:19:15.003Z,62.77
2023-05-23T00:21:51.083Z,62.74
2023-05-23T00:24:19.016Z,63.35
2023-05-23T00:26:46.569Z,63.23
2023-05-23T00:29:16.333Z,62.85
2023-05-23T00:31:46.686Z,62.22
2023-05-23T00:34:20.668Z,62.50
2023-05-23T00:36:50.575Z,62.28
2023-05-23T00:39:20.356Z,62.61
2023-05-23T00:41:52.268Z,62.89
2023-05-23T00:44:20.693Z,62.68
2023-05-23T00:46:58.088Z,62.20
2023-05-23T00:51:54.849Z,62.43
2023-05-23T00:54:27.390Z,62.80
2023-05-23T00:56:55.057Z,62.38
2023-05-23T00:59:24.534Z,62.16
2023-05-23T01:01:52.990Z,62.94
2023-05-23T01:04:20.419Z,62.35
2023-05-23T01:06:49.198Z,61.70
2023-05-23T01:09:17.419Z,61.50
2023-05-23T01:11:57.082Z,61.84
2023-05-23T01:14:38.092Z,62.00
2023-05-23T01:17:13.793Z,62.11
2023-05-23T01:19:49.499Z,62.00
2023-05-23T01:22:25.591Z,62.10
2023-05-23T01:25:21.962Z,62.20
2023-05-23T01:27:53.061Z,62.44
2023-05-23T01:30:21.459Z,62.53
2023-05-23T01:32:50.815Z,62.63
2023-05-23T01:35:27.787Z,62.59
2023-05-23T01:37:57.166Z,62.74
2023-05-23T01:40:25.152Z,62.73
2023-05-23T01:42:53.645Z,62.95
2023-05-23T01:45:21.658Z,63.13
2023-05-23T01:47:51.154Z,63.39
2023-05-23T01:50:18.680Z,63.80
2023-05-23T01:52:47.095Z,63.42
2023-05-23T01:55:18.623Z,63.65
2023-05-23T01:57:49.721Z,62.92
2023-05-23T02:00:16.849Z,63.21
2023-05-23T02:02:46.438Z,63.35
2023-05-23T02:05:13.309Z,63.55
2023-05-23T02:07:39.883Z,63.75
2023-05-23T02:10:08.801Z,63.44
2023-05-23T02:12:35.953Z,63.44
2023-05-23T02:15:02.527Z,63.47
2023-05-23T02:17:38.807Z,63.35
2023-05-23T02:20:07.557Z,63.34
2023-05-23T02:22:34.125Z,63.69
2023-05-23T02:25:00.672Z,63.87
2023-05-23T02:27:28.600Z,63.37
2023-05-23T02:29:55.148Z,63.36
2023-05-23T02:32:21.687Z,63.46
2023-05-23T02:34:50.884Z,63.53
2023-05-23T02:37:18.015Z,63.67
2023-05-23T02:39:44.638Z,63.91
2023-05-23T02:42:11.163Z,64.02
2023-05-23T02:44:37.844Z,64.00
2023-05-23T02:47:04.662Z,64.13
2023-05-23T02:49:33.162Z,64.12
2023-05-23T02:52:00.057Z,64.12
2023-05-23T02:54:26.608Z,65.10
2023-05-23T02:56:54.790Z,65.08
2023-05-23T02:59:23.081Z,64.95
2023-05-23T03:01:50.060Z,64.87
2023-05-23T03:04:16.754Z,64.75
2023-05-23T03:06:44.409Z,64.57
2023-05-23T03:09:11.122Z,64.31
2023-05-23T03:11:37.753Z,63.92
2023-05-23T03:14:04.370Z,63.37
2023-05-23T03:16:31.114Z,62.93
2023-05-23T03:18:57.768Z,62.69
2023-05-23T03:21:24.949Z,62.47
2023-05-23T03:23:51.555Z,62.40
2023-05-23T03:26:18.316Z,62.42
2023-05-23T03:28:44.972Z,61.93
2023-05-23T03:31:11.612Z,61.98
2023-05-23T03:33:40.363Z,62.12
2023-05-23T03:36:07.433Z,62.36
2023-05-23T03:38:34.065Z,62.39
2023-05-23T03:41:00.802Z,62.21
2023-05-23T03:43:27.440Z,62.27
2023-05-23T03:45:54.103Z,62.05
2023-05-23T03:48:20.841Z,61.66
2023-05-23T03:50:47.786Z,61.60
2023-05-23T03:53:14.535Z,61.71
2023-05-23T03:55:41.391Z,61.39
2023-05-23T03:58:08.291Z,61.30
2023-05-23T04:00:34.904Z,60.82
2023-05-23T04:03:04.926Z,59.82
2023-05-23T04:05:31.940Z,58.56
2023-05-23T04:08:01.760Z,58.59
2023-05-23T04:10:28.920Z,60.34
2023-05-23T04:12:57.100Z,62.66
2023-05-23T04:15:23.770Z,63.59
2023-05-23T04:17:54.656Z,62.54
2023-05-23T04:20:21.351Z,61.26
2023-05-23T04:22:47.985Z,59.86
2023-05-23T04:25:14.644Z,58.36
2023-05-23T04:27:48.248Z,58.74
2023-05-23T04:30:17.844Z,59.83
2023-05-23T04:32:44.810Z,63.37
2023-05-23T04:35:14.289Z,63.68
2023-05-23T04:37:42.543Z,61.88
2023-05-23T04:40:09.598Z,60.45
2023-05-23T04:42:57.265Z,60.10
2023-05-23T04:45:32.928Z,59.53
2023-05-23T04:48:03.540Z,57.10
2023-05-23T04:50:40.667Z,56.77
2023-05-23T04:53:07.482Z,57.67
2023-05-23T04:55:34.872Z,58.93
2023-05-23T04:58:03.414Z,60.21
2023-05-23T05:00:30.363Z,60.94
2023-05-23T05:02:57.108Z,63.22
2023-05-23T05:05:27.586Z,63.43
2023-05-23T05:07:55.574Z,60.91
2023-05-23T05:10:22.158Z,58.10
2023-05-23T05:12:51.737Z,54.32
2023-05-23T05:15:19.485Z,55.21
2023-05-23T05:17:50.095Z,55.83
2023-05-23T05:20:18.980Z,56.17
2023-05-23T05:22:46.043Z,57.06
2023-05-23T05:25:13.020Z,58.31
2023-05-23T05:27:40.436Z,59.68
2023-05-23T05:30:10.407Z,59.99
2023-05-23T05:32:58.237Z,59.37
2023-05-23T05:35:24.984Z,58.26
2023-05-23T05:37:51.720Z,58.54
2023-05-23T05:40:18.932Z,58.77
2023-05-23T05:42:45.495Z,57.80
2023-05-23T05:45:12.131Z,56.80
2023-05-23T05:47:40.213Z,57.12
2023-05-23T05:50:09.478Z,56.72
2023-05-23T05:52:39.659Z,55.46
2023-05-23T05:55:13.641Z,56.19
2023-05-23T05:57:44.902Z,55.87
2023-05-23T06:00:19.050Z,53.98
2023-05-23T06:02:51.714Z,54.46
2023-05-23T06:05:26.743Z,55.21
2023-05-23T06:07:53.510Z,55.24
2023-05-23T06:10:20.990Z,53.44
2023-05-23T06:12:48.032Z,55.12
2023-05-23T06:15:16.009Z,54.75
2023-05-23T06:17:45.336Z,54.07
2023-05-23T06:20:12.451Z,53.29
2023-05-23T06:22:40.853Z,54.47
2023-05-23T06:25:07.961Z,51.33
2023-05-23T06:27:34.955Z,50.34
2023-05-23T06:30:03.782Z,49.25
2023-05-23T06:32:30.490Z,49.20
2023-05-23T06:34:57.885Z,48.92
2023-05-23T06:37:25.034Z,47.18
2023-05-23T06:39:51.634Z,47.86
2023-05-23T06:42:18.624Z,48.72
2023-05-23T06:45:17.550Z,46.16
2023-05-23T06:47:45.662Z,46.53
2023-05-23T06:50:12.663Z,45.60
2023-05-23T06:52:39.321Z,45.51
2023-05-23T06:55:06.687Z,46.80
2023-05-23T06:57:33.297Z,47.95
2023-05-23T06:59:59.954Z,47.18
2023-05-23T07:02:26.705Z,44.77
2023-05-23T07:04:54.024Z,39.84
2023-05-23T07:07:38.463Z,35.44
2023-05-23T07:10:06.243Z,31.84
2023-05-23T07:12:34.879Z,29.39
2023-05-23T07:15:02.409Z,27.99
2023-05-23T07:17:32.723Z,27.38
2023-05-23T07:19:59.689Z,25.64
2023-05-23T07:22:27.043Z,24.60
2023-05-23T07:24:53.886Z,25.41
2023-05-23T07:27:22.422Z,24.51
2023-05-23T07:29:49.060Z,23.43
2023-05-23T07:32:16.000Z,21.76
2023-05-23T07:34:43.429Z,22.74
2023-05-23T07:37:10.243Z,21.71
2023-05-23T07:39:41.886Z,21.10
2023-05-23T07:42:08.797Z,20.60
2023-05-23T07:44:35.790Z,20.69
2023-05-23T07:47:02.835Z,20.04
2023-05-23T07:49:29.846Z,19.40
2023-05-23T07:51:56.548Z,18.38
2023-05-23T07:54:23.286Z,18.01
2023-05-23T07:56:53.987Z,16.71
2023-05-23T07:59:20.736Z,15.42
2023-05-23T08:01:50.446Z,15.79
2023-05-23T08:04:19.061Z,16.93
2023-05-23T08:07:04.434Z,16.05
2023-05-23T08:09:45.674Z,16.09
2023-05-23T08:12:15.439Z,17.11
2023-05-23T08:14:51.738Z,17.89
2023-05-23T08:17:23.977Z,18.53
2023-05-23T08:19:51.182Z,19.04
2023-05-23T08:22:18.413Z,19.02
2023-05-23T08:24:44.999Z,18.62
2023-05-23T08:27:11.734Z,18.74
2023-05-23T08:29:38.723Z,19.41
2023-05-23T08:32:05.949Z,18.18
2023-05-23T08:34:34.152Z,18.84
2023-05-23T08:37:01.279Z,18.31
2023-05-23T08:39:28.218Z,17.42
2023-05-23T08:42:04.140Z,16.84
2023-05-23T08:44:31.038Z,16.94
2023-05-23T08:47:05.491Z,18.16
2023-05-23T08:49:54.750Z,17.07
2023-05-23T08:52:25.256Z,17.21
2023-05-23T08:54:53.270Z,17.09
2023-05-23T08:57:19.925Z,17.20
2023-05-23T08:59:51.929Z,17.35
2023-05-23T09:02:19.764Z,17.48
2023-05-23T09:04:47.584Z,18.53
2023-05-23T09:07:19.730Z,18.25
2023-05-23T09:09:49.374Z,17.92
2023-05-23T09:12:16.586Z,18.73
2023-05-23T09:14:46.082Z,19.68
2023-05-23T09:17:16.833Z,19.92
2023-05-23T09:19:43.572Z,19.91
2023-05-23T09:22:24.128Z,19.59
2023-05-23T09:24:58.040Z,20.91
2023-05-23T09:27:24.987Z,20.84
2023-05-23T09:29:51.912Z,19.28
2023-05-23T09:32:20.428Z,17.30
2023-05-23T09:35:06.621Z,17.40
2023-05-23T09:37:39.365Z,16.61
2023-05-23T09:40:14.430Z,16.59
2023-05-23T09:42:47.113Z,15.56
2023-05-23T09:45:15.170Z,16.10
2023-05-23T09:47:52.990Z,16.57
2023-05-23T09:50:21.092Z,15.91
2023-05-23T09:52:48.316Z,15.44
2023-05-23T09:55:15.661Z,14.98
2023-05-23T09:57:43.703Z,15.63
2023-05-23T10:00:15.192Z,16.12
2023-05-23T10:02:54.027Z,15.66
2023-05-23T10:05:31.942Z,16.05
2023-05-23T10:08:02.603Z,16.74
2023-05-23T10:10:33.955Z,17.31
2023-05-23T10:13:05.143Z,17.26
2023-05-23T10:15:39.135Z,17.91
2023-05-23T10:18:18.345Z,17.47
2023-05-23T10:20:49.179Z,17.19
2023-05-23T10:23:16.724Z,17.88
2023-05-23T10:25:44.589Z,17.31
2023-05-23T10:28:13.734Z,18.85
2023-05-23T10:30:41.268Z,19.65
2023-05-23T10:33:09.690Z,18.97
2023-05-23T10:35:58.454Z,18.81
2023-05-23T10:38:51.527Z,18.34
2023-05-23T10:41:34.203Z,18.17
2023-05-23T10:44:28.694Z,17.97
2023-05-23T10:47:02.296Z,18.34
2023-05-23T10:49:47.044Z,18.84
2023-05-23T10:52:17.400Z,18.50
2023-05-23T10:54:45.160Z,16.89
2023-05-23T10:57:17.577Z,17.09
2023-05-23T10:59:47.088Z,17.58
2023-05-23T11:02:16.210Z,18.32
2023-05-23T11:04:43.393Z,18.02
2023-05-23T11:07:31.331Z,18.36
2023-05-23T11:10:07.396Z,17.14
2023-05-23T11:12:39.994Z,16.95
2023-05-23T11:15:18.579Z,17.09
2023-05-23T11:17:57.513Z,16.55
2023-05-23T11:20:27.551Z,17.58
2023-05-23T11:22:59.238Z,18.25
2023-05-23T11:25:48.961Z,18.59
2023-05-23T11:28:17.377Z,19.30
2023-05-23T11:30:44.611Z,19.13
2023-05-23T11:33:17.035Z,19.10
2023-05-23T11:35:49.733Z,18.99
2023-05-23T11:38:17.067Z,18.59
2023-05-23T11:40:47.562Z,18.34
2023-05-23T11:43:16.715Z,18.18
2023-05-23T11:45:44.154Z,17.62
2023-05-23T11:48:17.693Z,17.80
2023-05-23T11:50:53.248Z,17.24
2023-05-23T11:53:25.236Z,17.09
2023-05-23T11:56:02.387Z,17.86
2023-05-23T11:58:33.530Z,17.02
2023-05-23T12:01:09.368Z,17.55
2023-05-23T12:03:47.281Z,18.44
2023-05-23T12:06:22.368Z,20.28
2023-05-23T12:08:49.133Z,21.61
2023-05-23T12:11:15.922Z,21.89
2023-05-23T12:13:43.153Z,22.85
2023-05-23T12:16:11.313Z,23.16
2023-05-23T12:18:38.182Z,22.19
2023-05-23T12:21:08.415Z,22.38
2023-05-23T12:23:36.573Z,21.76
2023-05-23T12:26:07.450Z,22.03
2023-05-23T12:28:39.721Z,21.68
2023-05-23T12:31:25.689Z,20.92
2023-05-23T12:33:53.431Z,20.62
2023-05-23T12:36:32.185Z,21.38
2023-05-23T12:39:05.963Z,20.58
2023-05-23T12:41:33.629Z,20.53
2023-05-23T12:44:00.859Z,20.73
2023-05-23T12:46:28.205Z,20.86
2023-05-23T12:48:55.374Z,21.44
2023-05-23T12:51:22.453Z,20.71
2023-05-23T12:53:49.392Z,21.94
2023-05-23T12:56:16.187Z,21.07
2023-05-23T12:58:43.614Z,21.35
2023-05-23T13:01:11.324Z,21.93
2023-05-23T13:03:38.085Z,21.52
2023-05-23T13:06:05.182Z,21.12
2023-05-23T13:08:32.130Z,21.59
2023-05-23T13:10:58.774Z,21.95
2023-05-23T13:13:26.776Z,21.55
2023-05-23T13:15:53.381Z,21.33
2023-05-23T13:18:20.144Z,21.93
2023-05-23T13:20:47.009Z,22.61
2023-05-23T13:23:14.278Z,22.76
2023-05-23T13:25:41.475Z,22.91
2023-05-23T13:28:08.505Z,22.77
2023-05-23T13:30:35.316Z,23.68
2023-05-23T13:33:02.107Z,23.94
2023-05-23T13:35:28.797Z,24.87
2023-05-23T13:37:55.582Z,24.30
2023-05-23T13:40:22.793Z,24.04
2023-05-23T13:42:51.346Z,23.93
2023-05-23T13:45:22.643Z,24.39
2023-05-23T13:47:49.715Z,24.81
2023-05-23T13:50:17.286Z,24.51
2023-05-23T13:52:46.473Z,24.92
2023-05-23T13:55:15.182Z,25.08
2023-05-23T13:57:41.765Z,24.51
2023-05-23T14:00:09.136Z,25.72
2023-05-23T14:02:35.920Z,26.01
2023-05-23T14:05:03.450Z,26.76
2023-05-23T14:07:30.154Z,26.68
2023-05-23T14:09:57.605Z,26.21
2023-05-23T14:12:24.272Z,26.44
2023-05-23T14:14:50.981Z,27.03
2023-05-23T14:17:18.318Z,27.71
2023-05-23T14:19:45.702Z,27.83
2023-05-23T14:22:12.557Z,28.05
2023-05-23T14:24:39.262Z,28.03
2023-05-23T14:27:08.654Z,26.90
2023-05-23T14:29:37.003Z,27.39
2023-05-23T14:32:06.905Z,28.48
2023-05-23T14:34:33.629Z,28.52
2023-05-23T14:37:01.353Z,28.65
2023-05-23T14:39:29.274Z,29.13
2023-05-23T14:41:56.452Z,29.23
2023-05-23T14:44:23.334Z,29.17
2023-05-23T14:46:50.473Z,28.93
2023-05-23T14:49:17.410Z,29.38
2023-05-23T14:51:49.055Z,28.86
2023-05-23T14:54:17.243Z,28.73
2023-05-23T14:56:43.900Z,29.22
2023-05-23T14:59:11.141Z,30.14
2023-05-23T15:01:40.905Z,30.35
2023-05-23T15:04:09.566Z,30.70
2023-05-23T15:06:38.667Z,30.09
2023-05-23T15:09:06.088Z,30.22
2023-05-23T15:11:35.050Z,30.20
2023-05-23T15:14:02.038Z,30.49
2023-05-23T15:16:32.725Z,30.77
2023-05-23T15:19:02.399Z,31.34
2023-05-23T15:21:29.217Z,31.08
2023-05-23T15:23:56.204Z,29.63
2023-05-23T15:26:23.923Z,30.24
2023-05-23T15:28:50.837Z,30.45
2023-05-23T15:31:17.678Z,30.31
2023-05-23T15:33:44.361Z,30.00
2023-05-23T15:36:13.176Z,30.31
2023-05-23T15:38:40.423Z,30.53
2023-05-23T15:41:07.179Z,30.57
2023-05-23T15:43:35.607Z,31.45
2023-05-23T15:46:02.786Z,31.75
2023-05-23T15:48:29.595Z,32.22
2023-05-23T15:50:56.265Z,32.22
2023-05-23T15:53:22.899Z,32.39
2023-05-23T15:55:49.516Z,32.46
2023-05-23T15:58:16.146Z,32.79
2023-05-23T16:00:42.975Z,31.88
2023-05-23T16:03:09.716Z,31.92
2023-05-23T16:05:36.448Z,31.51
2023-05-23T16:08:03.212Z,31.60
2023-05-23T16:10:29.938Z,31.41
2023-05-23T16:12:56.562Z,30.95
2023-05-23T16:15:23.181Z,31.60
2023-05-23T16:17:49.941Z,32.15
2023-05-23T16:20:19.156Z,32.83
2023-05-23T16:22:46.051Z,32.98
2023-05-23T16:25:12.856Z,33.37
2023-05-23T16:27:42.559Z,33.57
2023-05-23T16:30:10.153Z,35.11
2023-05-23T16:32:36.985Z,36.14
2023-05-23T16:35:04.100Z,35.96
2023-05-23T16:37:30.836Z,35.06
2023-05-23T16:39:57.502Z,34.69
2023-05-23T16:42:24.297Z,36.10
2023-05-23T16:44:51.154Z,36.35
2023-05-23T16:47:17.880Z,34.97
2023-05-23T16:49:44.868Z,36.47
2023-05-23T16:52:11.661Z,36.63
2023-05-23T16:54:38.630Z,36.85
2023-05-23T16:57:06.162Z,36.33
2023-05-23T16:59:33.115Z,36.82
2023-05-23T17:02:00.228Z,36.72
2023-05-23T17:04:26.883Z,36.76
2023-05-23T17:06:53.685Z,37.05
2023-05-23T17:09:22.225Z,36.89
2023-05-23T17:11:50.122Z,36.46
2023-05-23T17:14:17.514Z,37.28
2023-05-23T17:16:44.217Z,37.27
2023-05-23T17:19:11.010Z,36.93
2023-05-23T17:21:37.835Z,37.45
2023-05-23T17:24:04.589Z,37.61
2023-05-23T17:26:31.221Z,37.89
2023-05-23T17:28:57.783Z,37.87
2023-05-23T17:31:24.600Z,37.75
2023-05-23T17:33:51.229Z,37.83
2023-05-23T17:36:17.840Z,38.01
2023-05-23T17:38:44.573Z,38.22
2023-05-23T17:41:11.270Z,38.34
2023-05-23T17:43:37.871Z,38.87
2023-05-23T17:46:04.535Z,39.76
2023-05-23T17:48:45.526Z,40.34
2023-05-23T17:51:13.821Z,40.69
2023-05-23T17:53:41.624Z,40.98
2023-05-23T17:56:09.301Z,41.71
2023-05-23T17:58:41.690Z,42.43
2023-05-23T18:01:11.698Z,42.87
2023-05-23T18:03:38.934Z,44.18
2023-05-23T18:06:05.783Z,44.46
2023-05-23T18:08:32.464Z,43.95
2023-05-23T18:10:59.090Z,44.41
2023-05-23T18:13:25.984Z,45.22
2023-05-23T18:15:52.944Z,45.77
2023-05-23T18:18:19.764Z,46.40
2023-05-23T18:20:47.302Z,46.23
2023-05-23T18:23:13.925Z,46.89
2023-05-23T18:25:40.555Z,47.86
2023-05-23T18:28:07.205Z,47.44
2023-05-23T18:30:33.905Z,46.91
2023-05-23T18:33:00.824Z,47.34
2023-05-23T18:35:27.870Z,47.06
2023-05-23T18:37:54.692Z,47.35
2023-05-23T18:40:23.734Z,46.94
2023-05-23T18:42:50.759Z,46.96
2023-05-23T18:45:17.633Z,47.72
2023-05-23T18:47:44.846Z,47.62
2023-05-23T18:50:13.307Z,48.04
2023-05-23T18:52:40.617Z,48.47
2023-05-23T18:55:07.748Z,48.91
2023-05-23T18:57:34.587Z,49.55
2023-05-23T19:00:03.237Z,49.89
2023-05-23T19:02:29.975Z,50.46
2023-05-23T19:04:56.718Z,50.32
2023-05-23T19:07:23.407Z,49.98
2023-05-23T19:09:50.038Z,49.79
2023-05-23T19:12:16.791Z,49.86
2023-05-23T19:14:43.419Z,49.75
2023-05-23T19:17:10.511Z,49.46
2023-05-23T19:19:37.504Z,49.45
2023-05-23T19:22:04.650Z,49.46
2023-05-23T19:24:32.163Z,49.58
2023-05-23T19:26:58.918Z,49.56
2023-05-23T19:29:26.721Z,49.90
2023-05-23T19:31:55.282Z,49.63
2023-05-23T19:34:22.551Z,50.44
2023-05-23T19:36:49.788Z,50.68
2023-05-23T19:39:16.445Z,50.62
2023-05-23T19:41:43.034Z,51.33
2023-05-23T19:44:09.801Z,51.49
2023-05-23T19:46:36.435Z,52.14
2023-05-23T19:49:03.112Z,52.13
2023-05-23T19:51:29.784Z,52.80
2023-05-23T19:53:56.431Z,52.14
2023-05-23T19:56:23.754Z,52.36
2023-05-23T19:58:50.425Z,52.42
2023-05-23T20:01:17.170Z,52.16
2023-05-23T20:03:43.880Z,52.24
2023-05-23T20:06:10.720Z,51.86
2023-05-23T20:08:37.320Z,51.89
2023-05-23T20:11:04.006Z,52.29
2023-05-23T20:13:30.592Z,52.65
2023-05-23T20:15:57.340Z,53.28
2023-05-23T20:18:24.012Z,54.12
2023-05-23T20:20:50.629Z,54.85
2023-05-23T20:23:17.529Z,54.22
2023-05-23T20:25:44.152Z,54.39
2023-05-23T20:28:11.151Z,55.70
2023-05-23T20:30:37.955Z,54.71
2023-05-23T20:33:04.888Z,55.80
2023-05-23T20:35:31.814Z,55.46
2023-05-23T20:37:59.355Z,55.79
2023-05-23T20:40:38.924Z,56.54
2023-05-23T20:43:06.656Z,56.97
2023-05-23T20:45:33.866Z,57.40
2023-05-23T20:48:00.981Z,57.16
2023-05-23T20:50:28.729Z,57.77
2023-05-23T20:52:55.565Z,58.16
2023-05-23T20:55:22.387Z,58.06
2023-05-23T20:57:49.291Z,57.38
2023-05-23T21:00:16.497Z,57.84
2023-05-23T21:02:43.839Z,58.00
2023-05-23T21:05:12.345Z,58.21
2023-05-23T21:07:41.689Z,58.06
2023-05-23T21:10:08.954Z,58.64
2023-05-23T21:12:36.107Z,58.89
2023-05-23T21:15:03.461Z,58.94
2023-05-23T21:17:30.342Z,58.91
2023-05-23T21:19:57.026Z,58.62
2023-05-23T21:22:23.761Z,59.34
2023-05-23T21:24:50.563Z,59.48
2023-05-23T21:27:17.588Z,59.21
2023-05-23T21:29:45.039Z,59.80
2023-05-23T21:32:11.709Z,59.46
2023-05-23T21:34:38.577Z,59.13
2023-05-23T21:37:05.301Z,59.31
2023-05-23T21:39:47.066Z,58.92
2023-05-23T21:42:18.518Z,58.78
2023-05-23T21:44:45.947Z,59.30
2023-05-23T21:47:13.192Z,59.22
2023-05-23T21:49:40.614Z,60.24
2023-05-23T21:52:07.498Z,60.17
2023-05-23T21:54:34.289Z,60.39
2023-05-23T21:57:00.995Z,59.86
2023-05-23T21:59:27.682Z,59.76
2023-05-23T22:01:54.358Z,59.91
2023-05-23T22:04:21.072Z,60.25
2023-05-23T22:06:47.727Z,60.42
2023-05-23T22:09:15.429Z,60.06
2023-05-23T22:11:42.429Z,60.05
2023-05-23T22:14:10.170Z,59.71
2023-05-23T22:16:39.734Z,59.81
2023-05-23T22:19:08.254Z,60.09
2023-05-23T22:21:35.044Z,59.70
2023-05-23T22:24:01.772Z,59.57
2023-05-23T22:26:28.956Z,59.74
2023-05-23T22:28:55.921Z,59.42
2023-05-23T22:31:24.172Z,59.73
2023-05-23T22:33:51.253Z,59.55
2023-05-23T22:36:18.314Z,59.16
2023-05-23T22:38:45.720Z,59.32
2023-05-23T22:41:12.816Z,59.33
2023-05-23T22:43:39.772Z,59.11
2023-05-23T22:46:07.071Z,59.19
2023-05-23T22:48:34.285Z,59.24
2023-05-23T22:51:22.451Z,59.35
2023-05-23T22:53:49.171Z,58.82
2023-05-23T22:56:15.991Z,58.74
2023-05-23T22:58:43.056Z,58.80
2023-05-23T23:01:09.739Z,58.75
2023-05-23T23:03:36.393Z,58.37
2023-05-23T23:06:06.340Z,58.27
2023-05-23T23:08:33.408Z,58.04
2023-05-23T23:11:00.036Z,57.88
2023-05-23T23:13:26.827Z,57.97
2023-05-23T23:15:54.423Z,58.05
2023-05-23T23:18:21.118Z,58.19
2023-05-23T23:20:48.410Z,58.17
2023-05-23T23:23:15.174Z,58.34
2023-05-23T23:25:41.820Z,58.33
2023-05-23T23:28:08.466Z,58.45
2023-05-23T23:30:35.028Z,58.40
2023-05-23T23:33:01.703Z,58.42
2023-05-23T23:35:28.467Z,58.63
2023-05-23T23:37:55.011Z,58.22
2023-05-23T23:40:21.555Z,58.24
2023-05-23T23:42:48.114Z,58.26
2023-05-23T23:45:14.747Z,58.37
2023-05-23T23:47:42.551Z,58.20
2023-05-23T23:50:09.385Z,58.30
2023-05-23T23:52:38.863Z,58.62
2023-05-23T23:55:06.293Z,58.12
2023-05-23T23:57:32.884Z,58.59
2023-05-23T23:59:59.655Z,58.44
